sensor_id;sensor_type;location;lat;lon;timestamp;temperature;humidity
37052;DHT22;22964;52.272;13.356;2023-05-07T00:01:59;12.70;82.60
37052;DHT22;22964;52.272;13.356;2023-05-07T00:04:25;12.80;82.40
37052;DHT22;22964;52.272;13.356;2023-05-07T00:06:50;12.70;82.40
37052;DHT22;22964;52.272;13.356;2023-05-07T00:09:16;12.70;82.40
37052;DHT22;22964;52.272;13.356;2023-05-07T00:11:42;12.80;82.20
37052;DHT22;22964;52.272;13.356;2023-05-07T00:14:08;12.70;82.30
37052;DHT22;22964;52.272;13.356;2023-05-07T00:16:33;12.80;82.40
37052;DHT22;22964;52.272;13.356;2023-05-07T00:18:59;12.70;82.10
37052;DHT22;22964;52.272;13.356;2023-05-07T00:21:25;12.70;82.00
37052;DHT22;22964;52.272;13.356;2023-05-07T00:23:53;12.80;82.10
37052;DHT22;22964;52.272;13.356;2023-05-07T00:26:18;12.80;82.10
37052;DHT22;22964;52.272;13.356;2023-05-07T00:28:47;12.80;82.10
37052;DHT22;22964;52.272;13.356;2023-05-07T00:31:12;12.80;82.20
37052;DHT22;22964;52.272;13.356;2023-05-07T00:33:38;12.70;82.00
37052;DHT22;22964;52.272;13.356;2023-05-07T00:36:04;12.70;82.00
37052;DHT22;22964;52.272;13.356;2023-05-07T00:38:30;12.80;82.80
37052;DHT22;22964;52.272;13.356;2023-05-07T00:40:56;12.70;82.00
37052;DHT22;22964;52.272;13.356;2023-05-07T00:43:21;12.70;82.00
37052;DHT22;22964;52.272;13.356;2023-05-07T00:45:47;12.70;81.90
37052;DHT22;22964;52.272;13.356;2023-05-07T00:48:13;12.80;82.10
37052;DHT22;22964;52.272;13.356;2023-05-07T00:50:39;12.80;82.70
37052;DHT22;22964;52.272;13.356;2023-05-07T00:53:05;12.80;81.90
37052;DHT22;22964;52.272;13.356;2023-05-07T00:55:32;12.80;81.90
37052;DHT22;22964;52.272;13.356;2023-05-07T00:57:58;12.80;81.80
37052;DHT22;22964;52.272;13.356;2023-05-07T01:00:24;12.80;81.90
37052;DHT22;22964;52.272;13.356;2023-05-07T01:02:50;12.80;81.90
37052;DHT22;22964;52.272;13.356;2023-05-07T01:05:17;12.80;82.00
37052;DHT22;22964;52.272;13.356;2023-05-07T01:07:44;12.80;82.80
37052;DHT22;22964;52.272;13.356;2023-05-07T01:10:11;12.80;81.90
37052;DHT22;22964;52.272;13.356;2023-05-07T01:12:39;12.80;82.10
37052;DHT22;22964;52.272;13.356;2023-05-07T01:15:06;12.80;82.00
37052;DHT22;22964;52.272;13.356;2023-05-07T01:17:38;12.70;81.90
37052;DHT22;22964;52.272;13.356;2023-05-07T01:20:08;12.80;81.90
37052;DHT22;22964;52.272;13.356;2023-05-07T01:22:39;12.80;81.80
37052;DHT22;22964;52.272;13.356;2023-05-07T01:25:07;12.80;81.80
37052;DHT22;22964;52.272;13.356;2023-05-07T01:27:34;12.80;81.60
37052;DHT22;22964;52.272;13.356;2023-05-07T01:30:02;12.80;81.50
37052;DHT22;22964;52.272;13.356;2023-05-07T01:32:48;12.80;81.50
37052;DHT22;22964;52.272;13.356;2023-05-07T01:35:19;12.90;81.40
37052;DHT22;22964;52.272;13.356;2023-05-07T01:37:47;12.90;81.30
37052;DHT22;22964;52.272;13.356;2023-05-07T01:40:13;12.90;81.30
37052;DHT22;22964;52.272;13.356;2023-05-07T01:42:41;12.90;81.10
37052;DHT22;22964;52.272;13.356;2023-05-07T01:45:07;12.90;81.00
37052;DHT22;22964;52.272;13.356;2023-05-07T01:47:33;12.90;80.90
37052;DHT22;22964;52.272;13.356;2023-05-07T01:49:59;13.00;81.00
37052;DHT22;22964;52.272;13.356;2023-05-07T01:52:27;13.00;80.90
37052;DHT22;22964;52.272;13.356;2023-05-07T01:54:53;13.00;80.80
37052;DHT22;22964;52.272;13.356;2023-05-07T01:57:19;13.00;80.80
37052;DHT22;22964;52.272;13.356;2023-05-07T01:59:44;13.00;80.70
37052;DHT22;22964;52.272;13.356;2023-05-07T02:02:10;13.00;80.60
37052;DHT22;22964;52.272;13.356;2023-05-07T02:04:40;13.00;80.50
37052;DHT22;22964;52.272;13.356;2023-05-07T02:07:05;13.00;80.50
37052;DHT22;22964;52.272;13.356;2023-05-07T02:09:31;13.00;80.50
37052;DHT22;22964;52.272;13.356;2023-05-07T02:11:57;13.00;80.50
37052;DHT22;22964;52.272;13.356;2023-05-07T02:14:23;13.00;80.60
37052;DHT22;22964;52.272;13.356;2023-05-07T02:16:49;12.90;80.60
37052;DHT22;22964;52.272;13.356;2023-05-07T02:19:15;12.90;80.70
37052;DHT22;22964;52.272;13.356;2023-05-07T02:21:41;12.90;80.70
37052;DHT22;22964;52.272;13.356;2023-05-07T02:24:07;12.90;80.80
37052;DHT22;22964;52.272;13.356;2023-05-07T02:26:33;12.90;80.90
37052;DHT22;22964;52.272;13.356;2023-05-07T02:28:59;12.80;81.00
37052;DHT22;22964;52.272;13.356;2023-05-07T02:31:25;12.80;81.00
37052;DHT22;22964;52.272;13.356;2023-05-07T02:33:51;12.80;81.10
37052;DHT22;22964;52.272;13.356;2023-05-07T02:36:17;12.70;81.10
37052;DHT22;22964;52.272;13.356;2023-05-07T02:38:49;12.70;81.10
37052;DHT22;22964;52.272;13.356;2023-05-07T02:41:15;12.70;81.40
37052;DHT22;22964;52.272;13.356;2023-05-07T02:43:41;12.70;81.40
37052;DHT22;22964;52.272;13.356;2023-05-07T02:46:08;12.70;81.30
37052;DHT22;22964;52.272;13.356;2023-05-07T02:48:37;12.70;81.30
37052;DHT22;22964;52.272;13.356;2023-05-07T02:51:04;12.70;81.20
37052;DHT22;22964;52.272;13.356;2023-05-07T02:53:31;12.70;81.10
37052;DHT22;22964;52.272;13.356;2023-05-07T02:55:58;12.70;81.00
37052;DHT22;22964;52.272;13.356;2023-05-07T02:58:24;12.70;81.00
37052;DHT22;22964;52.272;13.356;2023-05-07T03:00:50;12.70;81.00
37052;DHT22;22964;52.272;13.356;2023-05-07T03:03:27;12.70;80.90
37052;DHT22;22964;52.272;13.356;2023-05-07T03:05:52;12.70;80.90
37052;DHT22;22964;52.272;13.356;2023-05-07T03:08:18;12.70;80.80
37052;DHT22;22964;52.272;13.356;2023-05-07T03:10:44;12.70;80.80
37052;DHT22;22964;52.272;13.356;2023-05-07T03:13:10;12.70;80.80
37052;DHT22;22964;52.272;13.356;2023-05-07T03:15:36;12.70;80.70
37052;DHT22;22964;52.272;13.356;2023-05-07T03:18:02;12.70;80.70
37052;DHT22;22964;52.272;13.356;2023-05-07T03:20:27;12.70;80.70
37052;DHT22;22964;52.272;13.356;2023-05-07T03:22:53;12.70;80.70
37052;DHT22;22964;52.272;13.356;2023-05-07T03:25:19;12.70;80.70
37052;DHT22;22964;52.272;13.356;2023-05-07T03:27:45;12.70;80.60
37052;DHT22;22964;52.272;13.356;2023-05-07T03:30:11;12.70;80.70
37052;DHT22;22964;52.272;13.356;2023-05-07T03:32:37;12.70;80.70
37052;DHT22;22964;52.272;13.356;2023-05-07T03:35:06;12.60;80.60
37052;DHT22;22964;52.272;13.356;2023-05-07T03:37:33;12.70;80.70
37052;DHT22;22964;52.272;13.356;2023-05-07T03:39:59;12.70;80.70
37052;DHT22;22964;52.272;13.356;2023-05-07T03:42:25;12.70;80.70
37052;DHT22;22964;52.272;13.356;2023-05-07T03:44:52;12.70;80.60
37052;DHT22;22964;52.272;13.356;2023-05-07T03:47:18;12.60;80.60
37052;DHT22;22964;52.272;13.356;2023-05-07T03:49:45;12.70;80.60
37052;DHT22;22964;52.272;13.356;2023-05-07T03:52:12;12.70;80.60
37052;DHT22;22964;52.272;13.356;2023-05-07T03:54:38;12.70;80.60
37052;DHT22;22964;52.272;13.356;2023-05-07T03:57:03;12.60;80.60
37052;DHT22;22964;52.272;13.356;2023-05-07T03:59:29;12.70;80.50
37052;DHT22;22964;52.272;13.356;2023-05-07T04:01:56;12.70;80.40
37052;DHT22;22964;52.272;13.356;2023-05-07T04:04:23;12.70;80.40
37052;DHT22;22964;52.272;13.356;2023-05-07T04:06:49;12.70;80.30
37052;DHT22;22964;52.272;13.356;2023-05-07T04:09:15;12.70;80.30
37052;DHT22;22964;52.272;13.356;2023-05-07T04:11:40;12.60;80.30
37052;DHT22;22964;52.272;13.356;2023-05-07T04:14:08;12.60;80.30
37052;DHT22;22964;52.272;13.356;2023-05-07T04:16:35;12.60;80.40
37052;DHT22;22964;52.272;13.356;2023-05-07T04:19:01;12.60;80.40
37052;DHT22;22964;52.272;13.356;2023-05-07T04:21:27;12.60;80.40
37052;DHT22;22964;52.272;13.356;2023-05-07T04:23:53;12.60;80.50
37052;DHT22;22964;52.272;13.356;2023-05-07T04:26:19;12.60;80.40
37052;DHT22;22964;52.272;13.356;2023-05-07T04:28:46;12.60;80.60
37052;DHT22;22964;52.272;13.356;2023-05-07T04:31:14;12.60;80.70
37052;DHT22;22964;52.272;13.356;2023-05-07T04:33:40;12.60;80.70
37052;DHT22;22964;52.272;13.356;2023-05-07T04:36:09;12.60;80.70
37052;DHT22;22964;52.272;13.356;2023-05-07T04:38:42;12.60;80.70
37052;DHT22;22964;52.272;13.356;2023-05-07T04:41:09;12.60;80.70
37052;DHT22;22964;52.272;13.356;2023-05-07T04:43:39;12.60;80.70
37052;DHT22;22964;52.272;13.356;2023-05-07T04:46:05;12.50;80.70
37052;DHT22;22964;52.272;13.356;2023-05-07T04:48:31;12.50;80.50
37052;DHT22;22964;52.272;13.356;2023-05-07T04:50:58;12.50;80.60
37052;DHT22;22964;52.272;13.356;2023-05-07T04:53:24;12.50;80.50
37052;DHT22;22964;52.272;13.356;2023-05-07T04:55:58;12.50;80.60
37052;DHT22;22964;52.272;13.356;2023-05-07T04:58:27;12.50;80.60
37052;DHT22;22964;52.272;13.356;2023-05-07T05:00:53;12.50;80.60
37052;DHT22;22964;52.272;13.356;2023-05-07T05:03:18;12.50;80.60
37052;DHT22;22964;52.272;13.356;2023-05-07T05:05:44;12.50;80.50
37052;DHT22;22964;52.272;13.356;2023-05-07T05:08:11;12.60;80.80
37052;DHT22;22964;52.272;13.356;2023-05-07T05:10:40;12.60;80.70
37052;DHT22;22964;52.272;13.356;2023-05-07T05:13:07;12.60;80.70
37052;DHT22;22964;52.272;13.356;2023-05-07T05:15:34;12.60;80.60
37052;DHT22;22964;52.272;13.356;2023-05-07T05:18:01;12.60;80.60
37052;DHT22;22964;52.272;13.356;2023-05-07T05:20:27;12.60;80.60
37052;DHT22;22964;52.272;13.356;2023-05-07T05:22:52;12.70;80.60
37052;DHT22;22964;52.272;13.356;2023-05-07T05:25:18;12.60;80.60
37052;DHT22;22964;52.272;13.356;2023-05-07T05:27:44;12.70;80.50
37052;DHT22;22964;52.272;13.356;2023-05-07T05:30:11;12.70;80.50
37052;DHT22;22964;52.272;13.356;2023-05-07T05:32:37;12.70;80.50
37052;DHT22;22964;52.272;13.356;2023-05-07T05:35:04;12.70;80.60
37052;DHT22;22964;52.272;13.356;2023-05-07T05:37:30;12.70;80.80
37052;DHT22;22964;52.272;13.356;2023-05-07T05:39:58;12.70;80.80
37052;DHT22;22964;52.272;13.356;2023-05-07T05:42:25;12.70;80.80
37052;DHT22;22964;52.272;13.356;2023-05-07T05:44:51;12.70;80.80
37052;DHT22;22964;52.272;13.356;2023-05-07T05:47:16;12.70;80.60
37052;DHT22;22964;52.272;13.356;2023-05-07T05:49:42;12.80;80.60
37052;DHT22;22964;52.272;13.356;2023-05-07T05:52:12;12.80;80.50
37052;DHT22;22964;52.272;13.356;2023-05-07T05:54:39;12.80;80.40
37052;DHT22;22964;52.272;13.356;2023-05-07T05:57:05;12.80;80.10
37052;DHT22;22964;52.272;13.356;2023-05-07T05:59:31;12.80;80.20
37052;DHT22;22964;52.272;13.356;2023-05-07T06:01:57;12.80;80.10
37052;DHT22;22964;52.272;13.356;2023-05-07T06:04:23;12.90;80.10
37052;DHT22;22964;52.272;13.356;2023-05-07T06:06:49;12.90;79.90
37052;DHT22;22964;52.272;13.356;2023-05-07T06:09:15;12.90;79.90
37052;DHT22;22964;52.272;13.356;2023-05-07T06:11:43;13.00;80.30
37052;DHT22;22964;52.272;13.356;2023-05-07T06:14:10;13.00;80.50
37052;DHT22;22964;52.272;13.356;2023-05-07T06:16:36;13.10;80.60
37052;DHT22;22964;52.272;13.356;2023-05-07T06:19:05;13.20;80.30
37052;DHT22;22964;52.272;13.356;2023-05-07T06:21:30;13.20;79.40
37052;DHT22;22964;52.272;13.356;2023-05-07T06:23:57;13.30;79.00
37052;DHT22;22964;52.272;13.356;2023-05-07T06:26:23;13.30;78.80
37052;DHT22;22964;52.272;13.356;2023-05-07T06:28:48;13.30;78.30
37052;DHT22;22964;52.272;13.356;2023-05-07T06:31:18;13.40;78.00
37052;DHT22;22964;52.272;13.356;2023-05-07T06:34:01;13.40;77.70
37052;DHT22;22964;52.272;13.356;2023-05-07T06:36:33;13.50;77.40
37052;DHT22;22964;52.272;13.356;2023-05-07T06:39:03;13.50;77.10
37052;DHT22;22964;52.272;13.356;2023-05-07T06:41:29;13.50;76.80
37052;DHT22;22964;52.272;13.356;2023-05-07T06:44:00;13.50;76.60
37052;DHT22;22964;52.272;13.356;2023-05-07T06:46:35;13.50;77.00
37052;DHT22;22964;52.272;13.356;2023-05-07T06:49:03;13.50;76.90
37052;DHT22;22964;52.272;13.356;2023-05-07T06:51:29;13.60;77.30
37052;DHT22;22964;52.272;13.356;2023-05-07T06:54:01;13.60;77.20
37052;DHT22;22964;52.272;13.356;2023-05-07T06:56:26;13.60;76.60
37052;DHT22;22964;52.272;13.356;2023-05-07T06:58:53;13.60;76.70
37052;DHT22;22964;52.272;13.356;2023-05-07T07:01:19;13.70;76.80
37052;DHT22;22964;52.272;13.356;2023-05-07T07:03:45;13.70;76.70
37052;DHT22;22964;52.272;13.356;2023-05-07T07:06:11;13.70;76.70
37052;DHT22;22964;52.272;13.356;2023-05-07T07:08:37;13.70;77.20
37052;DHT22;22964;52.272;13.356;2023-05-07T07:11:05;13.80;77.50
37052;DHT22;22964;52.272;13.356;2023-05-07T07:13:31;13.80;77.30
37052;DHT22;22964;52.272;13.356;2023-05-07T07:15:57;13.80;77.30
37052;DHT22;22964;52.272;13.356;2023-05-07T07:18:23;13.90;77.30
37052;DHT22;22964;52.272;13.356;2023-05-07T07:20:49;13.90;77.80
37052;DHT22;22964;52.272;13.356;2023-05-07T07:23:15;14.00;77.80
37052;DHT22;22964;52.272;13.356;2023-05-07T07:25:41;14.10;77.50
37052;DHT22;22964;52.272;13.356;2023-05-07T07:28:07;14.20;76.70
37052;DHT22;22964;52.272;13.356;2023-05-07T07:30:33;14.20;76.70
37052;DHT22;22964;52.272;13.356;2023-05-07T07:32:58;14.30;76.50
37052;DHT22;22964;52.272;13.356;2023-05-07T07:35:31;14.30;75.70
37052;DHT22;22964;52.272;13.356;2023-05-07T07:37:57;14.30;75.50
37052;DHT22;22964;52.272;13.356;2023-05-07T07:40:23;14.30;75.10
37052;DHT22;22964;52.272;13.356;2023-05-07T07:42:51;14.30;75.00
37052;DHT22;22964;52.272;13.356;2023-05-07T07:45:17;14.40;75.40
37052;DHT22;22964;52.272;13.356;2023-05-07T07:47:46;14.40;76.10
37052;DHT22;22964;52.272;13.356;2023-05-07T07:50:12;14.40;76.60
37052;DHT22;22964;52.272;13.356;2023-05-07T07:52:38;14.50;76.70
37052;DHT22;22964;52.272;13.356;2023-05-07T07:55:05;14.50;75.50
37052;DHT22;22964;52.272;13.356;2023-05-07T07:57:32;14.70;75.20
37052;DHT22;22964;52.272;13.356;2023-05-07T07:59:58;14.70;75.00
37052;DHT22;22964;52.272;13.356;2023-05-07T08:02:24;14.80;74.40
37052;DHT22;22964;52.272;13.356;2023-05-07T08:04:50;14.80;74.20
37052;DHT22;22964;52.272;13.356;2023-05-07T08:07:16;14.80;73.80
37052;DHT22;22964;52.272;13.356;2023-05-07T08:09:46;14.80;73.60
37052;DHT22;22964;52.272;13.356;2023-05-07T08:12:13;14.80;74.10
37052;DHT22;22964;52.272;13.356;2023-05-07T08:14:39;14.90;74.20
37052;DHT22;22964;52.272;13.356;2023-05-07T08:17:06;14.90;74.10
37052;DHT22;22964;52.272;13.356;2023-05-07T08:19:33;15.00;74.50
37052;DHT22;22964;52.272;13.356;2023-05-07T08:21:59;15.10;74.80
37052;DHT22;22964;52.272;13.356;2023-05-07T08:24:26;15.20;74.90
37052;DHT22;22964;52.272;13.356;2023-05-07T08:26:52;15.30;74.20
37052;DHT22;22964;52.272;13.356;2023-05-07T08:29:17;15.30;73.40
37052;DHT22;22964;52.272;13.356;2023-05-07T08:31:43;15.40;72.60
37052;DHT22;22964;52.272;13.356;2023-05-07T08:34:09;15.50;72.60
37052;DHT22;22964;52.272;13.356;2023-05-07T08:36:38;15.60;71.50
37052;DHT22;22964;52.272;13.356;2023-05-07T08:39:04;15.70;72.10
37052;DHT22;22964;52.272;13.356;2023-05-07T08:41:31;15.70;72.80
37052;DHT22;22964;52.272;13.356;2023-05-07T08:43:58;15.70;72.60
37052;DHT22;22964;52.272;13.356;2023-05-07T08:46:31;15.80;71.50
37052;DHT22;22964;52.272;13.356;2023-05-07T08:48:57;15.90;71.30
37052;DHT22;22964;52.272;13.356;2023-05-07T08:51:23;16.00;71.70
37052;DHT22;22964;52.272;13.356;2023-05-07T08:53:50;16.10;72.50
37052;DHT22;22964;52.272;13.356;2023-05-07T08:56:22;16.20;73.00
37052;DHT22;22964;52.272;13.356;2023-05-07T08:58:50;16.40;72.70
37052;DHT22;22964;52.272;13.356;2023-05-07T09:01:16;16.60;71.60
37052;DHT22;22964;52.272;13.356;2023-05-07T09:03:46;16.70;69.70
37052;DHT22;22964;52.272;13.356;2023-05-07T09:06:13;16.90;69.10
37052;DHT22;22964;52.272;13.356;2023-05-07T09:08:39;17.00;68.40
37052;DHT22;22964;52.272;13.356;2023-05-07T09:11:06;17.00;67.80
37052;DHT22;22964;52.272;13.356;2023-05-07T09:13:32;17.00;67.20
37052;DHT22;22964;52.272;13.356;2023-05-07T09:16:10;16.90;66.20
37052;DHT22;22964;52.272;13.356;2023-05-07T09:18:43;16.90;65.80
37052;DHT22;22964;52.272;13.356;2023-05-07T09:21:15;16.80;65.60
37052;DHT22;22964;52.272;13.356;2023-05-07T09:23:41;16.70;66.60
37052;DHT22;22964;52.272;13.356;2023-05-07T09:26:08;16.70;66.50
37052;DHT22;22964;52.272;13.356;2023-05-07T09:28:43;16.70;67.20
37052;DHT22;22964;52.272;13.356;2023-05-07T09:31:12;16.60;66.60
37052;DHT22;22964;52.272;13.356;2023-05-07T09:33:39;16.60;66.70
37052;DHT22;22964;52.272;13.356;2023-05-07T09:36:07;16.60;66.70
37052;DHT22;22964;52.272;13.356;2023-05-07T09:38:38;16.60;65.90
37052;DHT22;22964;52.272;13.356;2023-05-07T09:41:07;16.50;66.50
37052;DHT22;22964;52.272;13.356;2023-05-07T09:43:40;16.50;67.10
37052;DHT22;22964;52.272;13.356;2023-05-07T09:46:11;16.40;67.10
37052;DHT22;22964;52.272;13.356;2023-05-07T09:48:38;16.40;67.30
37052;DHT22;22964;52.272;13.356;2023-05-07T09:51:11;16.40;66.90
37052;DHT22;22964;52.272;13.356;2023-05-07T09:53:41;16.50;65.50
37052;DHT22;22964;52.272;13.356;2023-05-07T09:56:09;16.40;65.10
37052;DHT22;22964;52.272;13.356;2023-05-07T09:58:37;16.30;65.20
37052;DHT22;22964;52.272;13.356;2023-05-07T10:01:04;16.30;64.60
37052;DHT22;22964;52.272;13.356;2023-05-07T10:03:31;16.20;66.00
37052;DHT22;22964;52.272;13.356;2023-05-07T10:06:04;16.20;67.30
37052;DHT22;22964;52.272;13.356;2023-05-07T10:08:31;16.20;67.40
37052;DHT22;22964;52.272;13.356;2023-05-07T10:10:59;16.30;66.00
37052;DHT22;22964;52.272;13.356;2023-05-07T10:13:27;16.40;66.40
37052;DHT22;22964;52.272;13.356;2023-05-07T10:15:57;16.50;66.60
37052;DHT22;22964;52.272;13.356;2023-05-07T10:18:25;16.60;67.40
37052;DHT22;22964;52.272;13.356;2023-05-07T10:21:07;16.70;67.00
37052;DHT22;22964;52.272;13.356;2023-05-07T10:23:34;16.80;65.50
37052;DHT22;22964;52.272;13.356;2023-05-07T10:26:04;16.90;66.00
37052;DHT22;22964;52.272;13.356;2023-05-07T10:28:36;17.00;65.50
37052;DHT22;22964;52.272;13.356;2023-05-07T10:31:46;17.10;65.50
37052;DHT22;22964;52.272;13.356;2023-05-07T10:34:18;17.20;63.90
37052;DHT22;22964;52.272;13.356;2023-05-07T10:36:45;17.30;65.30
37052;DHT22;22964;52.272;13.356;2023-05-07T10:39:13;17.30;65.40
37052;DHT22;22964;52.272;13.356;2023-05-07T10:41:39;17.40;64.50
37052;DHT22;22964;52.272;13.356;2023-05-07T10:44:06;17.40;64.40
37052;DHT22;22964;52.272;13.356;2023-05-07T10:46:34;17.50;65.40
37052;DHT22;22964;52.272;13.356;2023-05-07T10:49:09;17.50;64.90
37052;DHT22;22964;52.272;13.356;2023-05-07T10:52:17;17.60;65.20
37052;DHT22;22964;52.272;13.356;2023-05-07T10:57:46;18.00;64.50
37052;DHT22;22964;52.272;13.356;2023-05-07T11:05:37;18.60;59.50
37052;DHT22;22964;52.272;13.356;2023-05-07T11:08:18;18.70;58.10
37052;DHT22;22964;52.272;13.356;2023-05-07T11:11:05;18.80;59.10
37052;DHT22;22964;52.272;13.356;2023-05-07T11:13:47;18.70;58.90
37052;DHT22;22964;52.272;13.356;2023-05-07T11:16:33;18.70;59.60
37052;DHT22;22964;52.272;13.356;2023-05-07T11:19:14;18.70;60.50
37052;DHT22;22964;52.272;13.356;2023-05-07T11:21:44;18.70;59.60
37052;DHT22;22964;52.272;13.356;2023-05-07T11:24:17;18.70;59.50
37052;DHT22;22964;52.272;13.356;2023-05-07T11:27:00;18.80;61.70
37052;DHT22;22964;52.272;13.356;2023-05-07T11:29:26;18.90;62.80
37052;DHT22;22964;52.272;13.356;2023-05-07T11:31:59;19.00;63.00
37052;DHT22;22964;52.272;13.356;2023-05-07T11:34:30;19.20;62.60
37052;DHT22;22964;52.272;13.356;2023-05-07T11:36:58;19.40;62.30
37052;DHT22;22964;52.272;13.356;2023-05-07T11:39:37;19.50;61.10
37052;DHT22;22964;52.272;13.356;2023-05-07T11:42:03;19.60;60.80
37052;DHT22;22964;52.272;13.356;2023-05-07T11:44:44;19.70;58.50
37052;DHT22;22964;52.272;13.356;2023-05-07T11:47:11;19.70;55.70
37052;DHT22;22964;52.272;13.356;2023-05-07T11:49:42;19.70;55.90
37052;DHT22;22964;52.272;13.356;2023-05-07T11:52:08;19.60;56.70
37052;DHT22;22964;52.272;13.356;2023-05-07T11:54:37;19.50;57.30
37052;DHT22;22964;52.272;13.356;2023-05-07T11:57:03;19.40;56.40
37052;DHT22;22964;52.272;13.356;2023-05-07T11:59:29;19.30;56.60
37052;DHT22;22964;52.272;13.356;2023-05-07T12:01:57;19.30;56.50
37052;DHT22;22964;52.272;13.356;2023-05-07T12:04:24;19.30;56.60
37052;DHT22;22964;52.272;13.356;2023-05-07T12:06:54;19.30;56.20
37052;DHT22;22964;52.272;13.356;2023-05-07T12:09:21;19.40;55.70
37052;DHT22;22964;52.272;13.356;2023-05-07T12:11:46;19.40;56.60
37052;DHT22;22964;52.272;13.356;2023-05-07T12:14:12;19.50;57.90
37052;DHT22;22964;52.272;13.356;2023-05-07T12:16:40;19.60;58.60
37052;DHT22;22964;52.272;13.356;2023-05-07T12:19:06;19.80;57.90
37052;DHT22;22964;52.272;13.356;2023-05-07T12:21:34;20.00;56.70
37052;DHT22;22964;52.272;13.356;2023-05-07T12:24:01;20.10;55.50
37052;DHT22;22964;52.272;13.356;2023-05-07T12:26:27;20.20;56.40
37052;DHT22;22964;52.272;13.356;2023-05-07T12:28:52;20.30;57.00
37052;DHT22;22964;52.272;13.356;2023-05-07T12:31:18;20.30;55.50
37052;DHT22;22964;52.272;13.356;2023-05-07T12:33:44;20.40;54.70
37052;DHT22;22964;52.272;13.356;2023-05-07T12:36:12;20.40;53.50
37052;DHT22;22964;52.272;13.356;2023-05-07T12:38:38;20.40;53.30
37052;DHT22;22964;52.272;13.356;2023-05-07T12:41:07;20.40;53.70
37052;DHT22;22964;52.272;13.356;2023-05-07T12:43:33;20.40;53.10
37052;DHT22;22964;52.272;13.356;2023-05-07T12:46:07;20.20;52.90
37052;DHT22;22964;52.272;13.356;2023-05-07T12:48:33;20.20;53.00
37052;DHT22;22964;52.272;13.356;2023-05-07T12:51:01;20.20;54.60
37052;DHT22;22964;52.272;13.356;2023-05-07T12:53:28;20.20;53.80
37052;DHT22;22964;52.272;13.356;2023-05-07T12:55:56;20.30;54.70
37052;DHT22;22964;52.272;13.356;2023-05-07T12:58:30;20.30;55.10
37052;DHT22;22964;52.272;13.356;2023-05-07T13:00:57;20.40;52.80
37052;DHT22;22964;52.272;13.356;2023-05-07T13:03:28;20.50;53.70
37052;DHT22;22964;52.272;13.356;2023-05-07T13:05:59;20.70;52.20
37052;DHT22;22964;52.272;13.356;2023-05-07T13:08:26;20.80;53.10
37052;DHT22;22964;52.272;13.356;2023-05-07T13:10:52;21.00;52.90
37052;DHT22;22964;52.272;13.356;2023-05-07T13:13:19;21.10;51.30
37052;DHT22;22964;52.272;13.356;2023-05-07T13:15:46;21.10;51.30
37052;DHT22;22964;52.272;13.356;2023-05-07T13:18:11;21.10;51.20
37052;DHT22;22964;52.272;13.356;2023-05-07T13:20:37;21.00;50.40
37052;DHT22;22964;52.272;13.356;2023-05-07T13:23:03;20.90;50.50
37052;DHT22;22964;52.272;13.356;2023-05-07T13:25:30;20.80;50.60
37052;DHT22;22964;52.272;13.356;2023-05-07T13:27:59;20.70;51.00
37052;DHT22;22964;52.272;13.356;2023-05-07T13:30:25;20.60;51.20
37052;DHT22;22964;52.272;13.356;2023-05-07T13:32:53;20.50;52.00
37052;DHT22;22964;52.272;13.356;2023-05-07T13:35:20;20.40;51.90
37052;DHT22;22964;52.272;13.356;2023-05-07T13:37:46;20.40;51.60
37052;DHT22;22964;52.272;13.356;2023-05-07T13:40:13;20.30;49.60
37052;DHT22;22964;52.272;13.356;2023-05-07T13:42:39;20.30;51.90
37052;DHT22;22964;52.272;13.356;2023-05-07T13:45:05;20.30;51.50
37052;DHT22;22964;52.272;13.356;2023-05-07T13:47:31;20.30;51.40
37052;DHT22;22964;52.272;13.356;2023-05-07T13:49:57;20.40;51.70
37052;DHT22;22964;52.272;13.356;2023-05-07T13:52:22;20.30;50.90
37052;DHT22;22964;52.272;13.356;2023-05-07T13:54:48;20.50;52.10
37052;DHT22;22964;52.272;13.356;2023-05-07T13:57:14;20.60;52.00
37052;DHT22;22964;52.272;13.356;2023-05-07T13:59:40;20.70;52.60
37052;DHT22;22964;52.272;13.356;2023-05-07T14:02:06;20.90;51.50
37052;DHT22;22964;52.272;13.356;2023-05-07T14:04:32;21.10;52.00
37052;DHT22;22964;52.272;13.356;2023-05-07T14:06:57;21.20;52.30
37052;DHT22;22964;52.272;13.356;2023-05-07T14:09:23;21.30;52.40
37052;DHT22;22964;52.272;13.356;2023-05-07T14:11:49;21.50;50.90
37052;DHT22;22964;52.272;13.356;2023-05-07T14:14:19;21.60;49.00
37052;DHT22;22964;52.272;13.356;2023-05-07T14:16:45;21.70;50.30
37052;DHT22;22964;52.272;13.356;2023-05-07T14:19:13;21.70;50.20
37052;DHT22;22964;52.272;13.356;2023-05-07T14:21:39;21.80;49.70
37052;DHT22;22964;52.272;13.356;2023-05-07T14:24:06;21.80;48.70
37052;DHT22;22964;52.272;13.356;2023-05-07T14:26:34;21.80;49.30
37052;DHT22;22964;52.272;13.356;2023-05-07T14:29:00;21.80;49.30
37052;DHT22;22964;52.272;13.356;2023-05-07T14:31:25;21.70;49.60
37052;DHT22;22964;52.272;13.356;2023-05-07T14:33:51;21.70;49.30
37052;DHT22;22964;52.272;13.356;2023-05-07T14:36:18;21.60;49.70
37052;DHT22;22964;52.272;13.356;2023-05-07T14:38:46;21.60;49.30
37052;DHT22;22964;52.272;13.356;2023-05-07T14:41:12;21.50;50.10
37052;DHT22;22964;52.272;13.356;2023-05-07T14:43:37;21.50;51.40
37052;DHT22;22964;52.272;13.356;2023-05-07T14:46:03;21.50;51.10
37052;DHT22;22964;52.272;13.356;2023-05-07T14:48:29;21.60;50.50
37052;DHT22;22964;52.272;13.356;2023-05-07T14:50:54;21.60;49.90
37052;DHT22;22964;52.272;13.356;2023-05-07T14:53:21;21.60;50.00
37052;DHT22;22964;52.272;13.356;2023-05-07T14:55:47;21.60;49.10
37052;DHT22;22964;52.272;13.356;2023-05-07T14:58:13;21.60;48.20
37052;DHT22;22964;52.272;13.356;2023-05-07T15:00:39;21.50;49.20
37052;DHT22;22964;52.272;13.356;2023-05-07T15:03:09;21.40;48.70
37052;DHT22;22964;52.272;13.356;2023-05-07T15:05:36;21.20;49.10
37052;DHT22;22964;52.272;13.356;2023-05-07T15:08:02;21.10;48.40
37052;DHT22;22964;52.272;13.356;2023-05-07T15:10:28;20.90;48.30
37052;DHT22;22964;52.272;13.356;2023-05-07T15:12:54;20.70;49.30
37052;DHT22;22964;52.272;13.356;2023-05-07T15:15:19;20.50;50.10
37052;DHT22;22964;52.272;13.356;2023-05-07T15:17:45;20.50;50.10
37052;DHT22;22964;52.272;13.356;2023-05-07T15:20:11;20.40;50.10
37052;DHT22;22964;52.272;13.356;2023-05-07T15:22:37;20.30;50.00
37052;DHT22;22964;52.272;13.356;2023-05-07T15:25:03;20.30;49.90
37052;DHT22;22964;52.272;13.356;2023-05-07T15:27:30;20.20;50.10